Latest Weather Observations for Yanakie

IDV60801

Issued at 9:32 am EDT Tuesday 21 November 2017 (issued every 30 minutes, with the page automatically refreshed every 10 minutes)

About weather observations | Map of weather stations | Latest weather observations for VIC | Other Formats
Station Details ID: 085301 Name: YANAKIE Lat: -38.81 Lon: 146.19 Height: 13.3 m
Data from the previous 72 hours. | See also: Recent months at Yanakie
Date/Time
EDT
Temp
°C
App
Temp
°C
Dew
Point
°C
Rel
Hum
%
Delta-T
°C
Wind Press
QNH
hPa
Press
MSL
hPa
Rain since
9am
mm
Dir  Spd
km/h
Gust
km/h
Spd
kts
Gust
kts
21/09:30am 19.6 19.6 16.3 81 2.0 ENE 11 15 6 8 1021.7 1021.7 0.0
21/09:00am 19.9 20.4 16.5 81 2.0 ENE 9 15 5 8 1021.7 1021.7 0.0
21/08:30am 19.7 19.9 16.7 83 1.8 ENE 11 17 6 9 1021.6 1021.6 0.0
21/08:00am 18.8 19.0 16.8 88 1.2 ENE 11 15 6 8 1021.4 1021.4 0.0
21/07:30am 17.7 17.8 16.4 92 0.8 ENE 11 20 6 11 1021.1 1021.1 0.0
21/07:00am 17.0 17.4 16.2 95 0.5 NE 9 15 5 8 1020.9 1020.9 0.0
21/06:30am 16.6 16.4 15.8 95 0.5 NE 11 17 6 9 1020.5 1020.5 0.0
21/06:00am 16.4 15.3 15.4 94 0.6 ENE 15 20 8 11 1020.3 1020.3 0.0
21/05:30am 16.7 15.4 15.9 95 0.5 NE 17 22 9 12 1020.0 1020.0 0.0
21/05:00am 16.7 15.4 15.7 94 0.6 NE 17 22 9 12 1019.9 1019.9 0.0
21/04:30am 16.9 16.0 15.9 94 0.6 NE 15 20 8 11 1019.9 1019.9 0.0
21/04:00am 16.8 15.5 15.7 93 0.6 ENE 17 24 9 13 1020.1 1020.1 0.0
21/03:30am 16.8 15.5 15.7 93 0.6 ENE 17 28 9 15 1020.5 1020.5 0.0
21/03:00am 16.9 15.5 15.6 92 0.8 ENE 17 26 9 14 1020.5 1020.5 0.0
21/02:30am 17.0 16.0 15.5 91 0.9 ENE 15 22 8 12 1020.7 1020.7 0.0
21/02:00am 16.9 16.2 15.4 91 0.9 E 13 20 7 11 1021.0 1021.0 0.0
21/01:30am 16.8 16.4 15.3 91 0.9 E 11 17 6 9 1021.4 1021.4 0.0
21/01:00am 16.9 16.1 15.2 90 1.0 ENE 13 22 7 12 1021.6 1021.6 0.0
21/12:30am 17.0 16.6 15.3 90 1.0 E 11 19 6 10 1021.8 1021.8 0.0
21/12:00am 16.9 15.8 15.4 91 0.9 ENE 15 20 8 11 1022.1 1022.1 0.0
 
Date/Time
EDT
Temp
°C
App
Temp
°C
Dew
Point
°C
Rel
Hum
%
Delta-T
°C
Wind Press
QNH
hPa
Press
MSL
hPa
Rain since
9am
mm
Dir  Spd
km/h
Gust
km/h
Spd
kts
Gust
kts
20/11:30pm 16.9 16.2 15.4 91 0.9 E 13 22 7 12 1022.1 1022.1 0.0
20/11:00pm 16.7 16.3 15.2 91 0.9 E 11 20 6 11 1022.3 1022.3 0.0
20/10:30pm 16.9 16.1 15.2 90 1.0 E 13 20 7 11 1022.5 1022.5 0.0
20/10:00pm 16.9 15.7 15.1 89 1.0 E 15 28 8 15 1022.7 1022.7 0.0
20/09:30pm 17.0 15.4 15.0 88 1.2 E 17 24 9 13 1022.4 1022.4 0.0
20/09:00pm 17.1 15.8 14.9 87 1.3 E 15 24 8 13 1022.2 1022.2 0.0
20/08:30pm 17.3 16.0 14.9 86 1.4 E 15 24 8 13 1022.0 1022.0 0.0
20/08:00pm 17.8 16.2 14.9 83 1.7 E 17 26 9 14 1021.9 1021.9 0.0
20/07:30pm 18.4 16.9 15.3 82 1.8 E 17 26 9 14 1021.8 1021.8 0.0
20/07:00pm 19.3 17.5 15.4 78 2.3 E 19 28 10 15 1021.5 1021.5 0.0
20/06:30pm 20.0 18.2 15.4 75 2.7 E 19 28 10 15 1021.4 1021.4 0.0
20/06:00pm 20.7 19.1 15.9 74 2.9 E 19 32 10 17 1021.5 1021.5 0.0
20/05:30pm 21.4 19.8 15.0 67 3.8 E 17 26 9 14 1021.6 1021.6 0.0
20/05:00pm 21.8 20.0 15.6 68 3.7 E 19 32 10 17 1021.6 1021.6 0.0
20/04:30pm 22.1 19.2 14.0 60 4.7 ENE 22 33 12 18 1021.6 1021.6 0.0
20/04:00pm 22.4 20.3 15.3 64 4.2 ENE 20 30 11 16 1021.9 1021.9 0.0
20/03:30pm 22.8 21.0 15.9 65 4.2 ENE 20 30 11 16 1022.0 1022.0 0.0
20/03:00pm 23.2 22.7 17.7 71 3.4 E 17 26 9 14 1022.2 1022.2 0.0
20/02:30pm 23.1 21.6 17.8 72 3.3 ENE 22 30 12 16 1022.4 1022.4 0.0
20/02:00pm 24.2 24.1 17.9 68 3.9 ENE 15 24 8 13 1022.6 1022.6 0.0
20/01:30pm 24.3 24.7 18.2 68 3.8 ENE 13 20 7 11 1022.8 1022.8 0.0
20/01:00pm 25.1 26.8 18.5 67 4.2 ENE 7 13 4 7 1023.0 1023.0 0.0
20/12:30pm 25.0 26.0 17.7 64 4.6 ENE 9 13 5 7 1023.0 1023.0 0.0
20/12:00pm 24.9 26.2 18.4 67 4.1 NE 9 15 5 8 1023.2 1023.2 0.0
20/11:30am 24.8 26.4 18.3 67 4.1 ENE 7 11 4 6 1023.4 1023.4 0.0
20/11:00am 23.7 24.4 17.0 66 4.1 E 9 13 5 7 1023.5 1023.5 0.0
20/10:30am 22.4 23.3 17.5 74 3.0 E 9 13 5 7 1023.9 1023.9 0.0
20/10:00am 20.9 20.9 16.3 75 2.8 ENE 11 17 6 9 1024.0 1024.0 0.0
20/09:30am 19.8 19.9 16.4 81 2.0 NE 11 17 6 9 1024.2 1024.2 0.0
20/09:00am 19.2 18.8 16.2 83 1.8 NE 13 20 7 11 1023.8 1023.8 0.0
20/08:30am 18.9 18.3 16.7 87 1.3 ENE 15 24 8 13 1023.5 1023.5 0.0
20/08:00am 18.3 17.9 16.1 87 1.3 ENE 13 19 7 10 1023.4 1023.4 0.0
20/07:30am 17.6 17.1 15.8 89 1.1 E 13 19 7 10 1023.1 1023.1 0.0
20/07:00am 17.4 17.7 16.1 92 0.8 E 9 15 5 8 1022.8 1022.8 0.0
20/06:30am 16.6 16.8 15.8 95 0.5 E 9 17 5 9 1022.4 1022.4 0.0
20/06:00am 16.2 16.3 15.6 96 0.3 E 9 15 5 8 1022.1 1022.1 0.0
20/05:30am 16.2 16.3 15.6 96 0.4 E 9 13 5 7 1021.9 1021.9 0.0
20/05:00am 16.3 15.7 15.7 96 0.3 ENE 13 20 7 11 1021.7 1021.7 0.0
20/04:30am 16.3 16.1 15.7 96 0.4 ENE 11 17 6 9 1021.4 1021.4 0.0
20/04:00am 16.0 16.1 15.4 96 0.3 E 9 13 5 7 1021.7 1021.7 0.0
20/03:30am 16.2 16.3 15.6 96 0.4 E 9 13 5 7 1021.5 1021.5 0.0
20/03:00am 16.3 16.1 15.7 96 0.3 E 11 17 6 9 1021.3 1021.3 0.0
20/02:30am 16.4 16.5 15.6 95 0.5 E 9 13 5 7 1021.5 1021.5 0.0
20/02:00am 16.8 17.1 16.0 95 0.5 E 9 13 5 7 1021.4 1021.4 0.0
20/01:30am 16.7 16.9 15.7 94 0.6 E 9 17 5 9 1021.3 1021.3 0.0
20/01:00am 16.8 17.1 16.0 95 0.5 E 9 17 5 9 1021.4 1021.4 0.0
20/12:30am 16.9 16.5 16.1 95 0.5 ENE 13 19 7 10 1021.5 1021.5 0.0
20/12:00am 16.8 16.7 16.0 95 0.5 E 11 19 6 10 1021.5 1021.5 0.0
 
Date/Time
EDT
Temp
°C
App
Temp
°C
Dew
Point
°C
Rel
Hum
%
Delta-T
°C
Wind Press
QNH
hPa
Press
MSL
hPa
Rain since
9am
mm
Dir  Spd
km/h
Gust
km/h
Spd
kts
Gust
kts
19/11:30pm 16.7 16.6 15.9 95 0.5 E 11 19 6 10 1021.7 1021.7 0.0
19/11:00pm 16.8 16.6 15.8 94 0.6 E 11 19 6 10 1021.8 1021.8 0.0
19/10:30pm 17.0 16.5 15.9 93 0.6 ENE 13 19 7 10 1021.9 1021.9 0.0
19/10:00pm 17.1 16.6 16.0 93 0.6 ENE 13 20 7 11 1021.9 1021.9 0.0
19/09:30pm 16.9 16.7 15.8 93 0.6 E 11 19 6 10 1021.7 1021.7 0.0
19/09:00pm 16.9 16.3 15.6 92 0.8 E 13 20 7 11 1021.6 1021.6 0.0
19/08:30pm 17.0 16.3 15.5 91 0.9 E 13 19 7 10 1021.5 1021.5 0.0
19/08:00pm 17.6 16.6 15.6 88 1.2 E 15 26 8 14 1021.4 1021.4 0.0
19/07:30pm 18.4 17.0 15.6 84 1.6 E 17 30 9 16 1021.3 1021.3 0.0
19/07:00pm 19.4 17.7 15.7 79 2.2 E 19 30 10 16 1021.2 1021.2 0.0
19/06:30pm 20.5 19.1 15.5 73 3.0 E 17 24 9 13 1021.1 1021.1 0.0
19/06:00pm 21.3 20.0 14.9 67 3.8 E 15 24 8 13 1021.0 1021.0 0.0
19/05:30pm 22.1 20.2 14.2 61 4.6 ESE 17 24 9 13 1020.8 1020.8 0.0
19/05:00pm 23.1 22.0 14.4 58 5.1 E 13 20 7 11 1021.1 1021.1 0.0
19/04:30pm 23.1 21.6 14.1 57 5.3 E 15 22 8 12 1021.0 1021.0 0.0
19/04:00pm 23.0 21.6 14.6 59 4.9 ENE 15 24 8 13 1021.1 1021.1 0.0
19/03:30pm 22.7 20.6 13.7 56 5.2 ENE 17 22 9 12 1021.4 1021.4 0.0
19/03:00pm 23.0 21.7 14.8 60 4.8 ENE 15 22 8 12 1021.5 1021.5 0.0
19/02:30pm 23.3 21.8 15.4 61 4.7 ENE 17 22 9 12 1021.6 1021.6 0.0
19/02:00pm 23.2 21.6 15.0 60 4.9 ENE 17 22 9 12 1021.5 1021.5 0.0
19/01:30pm 23.1 22.0 15.2 61 4.7 E 15 20 8 11 1021.6 1021.6 0.0
19/01:00pm 23.0 21.9 14.3 58 5.1 E 13 20 7 11 1021.8 1021.8 0.0
19/12:30pm 22.8 21.7 14.4 59 4.9 ENE 13 20 7 11 1021.9 1021.9 0.0
19/12:00pm 22.8 21.8 14.6 60 4.8 E 13 20 7 11 1022.2 1022.2 0.0
19/11:30am 22.8 21.5 13.6 56 5.3 E 13 19 7 10 1022.1 1022.1 0.0
19/11:00am 22.2 21.3 14.8 63 4.4 ENE 13 19 7 10 1022.1 1022.1 0.0
19/10:30am 21.6 20.4 15.0 66 3.9 ENE 15 20 8 11 1021.6 1021.6 0.0
19/10:00am 21.4 21.1 15.5 69 3.5 ESE 11 19 6 10 1021.7 1021.7 0.0
19/09:30am 20.8 20.5 15.4 71 3.2 E 11 17 6 9 1021.6 1021.6 0.0
19/09:00am 20.2 19.5 15.4 74 2.8 E 13 20 7 11 1021.6 1021.6 0.2
19/08:30am 19.2 18.1 15.3 78 2.3 ESE 15 20 8 11 1021.5 1021.5 0.2
19/08:00am 18.9 18.5 15.2 79 2.2 ESE 11 17 6 9 1021.1 1021.1 0.2
19/07:30am 18.6 18.6 15.1 80 2.0 E 9 13 5 7 1020.9 1020.9 0.2
19/07:00am 17.7 16.6 14.4 81 1.9 ENE 13 19 7 10 1020.4 1020.4 0.2
19/06:30am 16.9 15.8 14.2 84 1.5 ENE 13 20 7 11 1019.9 1019.9 0.2
19/06:00am 16.6 15.1 14.1 85 1.4 ENE 15 22 8 12 1019.5 1019.5 0.2
19/05:30am 16.4 16.2 14.8 90 0.9 E 9 19 5 10 1019.3 1019.3 0.2
19/05:00am 16.4 15.9 14.8 90 0.9 E 11 17 6 9 1019.2 1019.2 0.2
19/04:30am 16.4 16.2 14.8 90 0.9 E 9 17 5 9 1019.0 1019.0 0.2
19/04:00am 16.5 16.3 14.7 89 1.0 E 9 15 5 8 1018.9 1018.9 0.2
19/03:30am 16.4 16.6 14.8 90 0.9 E 7 11 4 6 1018.8 1018.8 0.2
19/03:00am 16.9 16.9 15.1 89 1.0 E 9 19 5 10 1018.7 1018.7 0.2
19/02:30am 17.0 16.6 15.2 89 1.0 E 11 17 6 9 1018.8 1018.8 0.2
19/02:00am 17.0 17.0 15.3 90 1.0 E 9 17 5 9 1019.0 1019.0 0.2
19/01:30am 17.1 16.4 15.4 90 1.0 E 13 20 7 11 1018.7 1018.7 0.2
19/01:00am 17.1 16.4 15.4 90 1.0 E 13 22 7 12 1018.8 1018.8 0.2
19/12:30am 17.1 16.4 15.3 89 1.0 E 13 20 7 11 1018.9 1018.9 0.2
19/12:00am 17.1 16.4 15.4 90 1.0 E 13 19 7 10 1018.9 1018.9 0.2
 
Date/Time
EDT
Temp
°C
App
Temp
°C
Dew
Point
°C
Rel
Hum
%
Delta-T
°C
Wind Press
QNH
hPa
Press
MSL
hPa
Rain since
9am
mm
Dir  Spd
km/h
Gust
km/h
Spd
kts
Gust
kts
18/11:30pm 17.1 16.8 15.4 90 1.0 E 11 17 6 9 1019.1 1019.1 0.2
18/11:00pm 17.3 16.7 15.6 90 1.0 E 13 20 7 11 1018.8 1018.8 0.2
18/10:30pm 17.6 17.1 15.8 89 1.1 E 13 20 7 11 1018.8 1018.8 0.2
18/10:00pm 17.4 16.9 15.9 91 0.9 E 13 24 7 13 1018.7 1018.7 0.2
18/09:30pm 17.3 16.8 15.8 91 0.9 E 13 19 7 10 1018.6 1018.6 0.2
18/09:00pm 17.4 16.4 15.7 90 1.0 E 15 22 8 12 1018.0 1018.0 0.2
18/08:30pm 17.7 17.2 15.9 89 1.1 E 13 19 7 10 1017.9 1017.9 0.2
18/08:00pm 18.3 17.9 16.1 87 1.3 E 13 20 7 11 1017.8 1017.8 0.2
18/07:30pm 18.9 18.5 16.3 85 1.6 E 13 20 7 11 1017.4 1017.4 0.2
18/07:00pm 19.0 17.9 16.4 85 1.6 E 17 24 9 13 1017.6 1017.6 0.2
18/06:30pm 19.3 17.6 16.3 83 1.8 E 20 32 11 17 1017.1 1017.1 0.2
18/06:00pm 19.8 19.1 16.3 80 2.1 ESE 15 24 8 13 1017.0 1017.0 0.2
18/05:30pm 20.0 18.5 16.2 79 2.3 ESE 19 30 10 16 1016.8 1016.8 0.2
18/05:00pm 20.7 18.6 16.3 76 2.6 E 22 35 12 19 1016.8 1016.8 0.2
18/04:30pm 22.3 21.0 16.8 71 3.4 E 19 32 10 17 1016.9 1016.9 0.2
18/04:00pm 22.1 19.8 16.6 71 3.3 E 24 35 13 19 1016.9 1016.9 0.2
18/03:30pm 22.4 20.9 16.7 70 3.5 E 20 35 11 19 1017.1 1017.1 0.2
18/03:00pm 23.2 21.4 16.0 64 4.4 E 20 32 11 17 1017.1 1017.1 0.2
18/02:30pm 24.6 23.4 16.1 59 5.2 E 17 24 9 13 1017.2 1017.2 0.2
18/02:00pm 23.9 22.6 15.7 60 4.9 E 17 26 9 14 1017.2 1017.2 0.2
18/01:30pm 23.7 22.7 15.7 61 4.8 E 15 22 8 12 1017.6 1017.6 0.2
18/01:00pm 23.1 22.0 16.4 66 4.1 E 17 26 9 14 1017.8 1017.8 0.2
18/12:30pm 22.4 21.1 16.9 71 3.4 ENE 19 24 10 13 1017.9 1017.9 0.2
18/12:00pm 22.6 22.1 16.9 70 3.5 E 15 22 8 12 1017.9 1017.9 0.2
18/11:30am 21.9 21.1 17.1 74 2.9 ENE 17 28 9 15 1018.1 1018.1 0.2
18/11:00am 21.2 19.7 16.4 74 2.9 ENE 19 28 10 15 1017.9 1017.9 0.2
18/10:30am 21.5 20.3 17.1 76 2.7 E 19 26 10 14 1017.9 1017.9 0.2
18/10:00am 20.4 19.1 15.8 75 2.7 E 17 26 9 14 1017.8 1017.8 0.2

Other Formats:

Comma delimited format used in spreadsheet applications
http://www.bom.gov.au/fwo/IDV60801/IDV60801.94911.axf

JavaScript Object Notation format (JSON) in row-major order
http://www.bom.gov.au/fwo/IDV60801/IDV60801.94911.json